createdAt,value
2018-04-23T00:01:26.112Z,3.57
2018-04-23T00:04:01.396Z,5.73
2018-04-23T00:06:36.640Z,7.27
2018-04-23T00:09:11.909Z,5.77
2018-04-23T00:11:47.831Z,5.13
2018-04-23T00:14:23.808Z,4.33
2018-04-23T00:16:59.091Z,6.30
2018-04-23T00:19:34.177Z,7.63
2018-04-23T00:22:09.496Z,7.53
2018-04-23T00:24:45.769Z,10.20
2018-04-23T00:27:20.896Z,7.63
2018-04-23T00:29:57.355Z,5.40
2018-04-23T00:32:32.467Z,8.23
2018-04-23T00:35:07.603Z,5.57
2018-04-23T00:37:42.828Z,5.20
2018-04-23T00:40:19.043Z,4.70
2018-04-23T00:42:54.346Z,5.77
2018-04-23T00:45:30.302Z,5.70
2018-04-23T00:48:05.596Z,6.30
2018-04-23T00:50:40.811Z,5.87
2018-04-23T00:53:34.037Z,12.87
2018-04-23T00:56:10.091Z,4.83
2018-04-23T00:58:45.266Z,3.90
2018-04-23T01:01:20.523Z,11.63
2018-04-23T01:03:56.503Z,4.13
2018-04-23T01:06:31.657Z,7.60
2018-04-23T01:09:06.943Z,11.07
2018-04-23T01:11:42.157Z,6.23
2018-04-23T01:14:18.121Z,5.90
2018-04-23T01:16:53.491Z,5.10
2018-04-23T01:19:28.841Z,8.17
2018-04-23T01:22:03.946Z,5.60
2018-04-23T01:24:39.413Z,3.90
2018-04-23T01:27:14.568Z,3.50
2018-04-23T01:29:49.927Z,6.20
2018-04-23T01:32:25.275Z,6.90
2018-04-23T01:35:01.349Z,8.50
2018-04-23T01:37:36.405Z,6.30
2018-04-23T01:40:14.094Z,8.27
2018-04-23T01:42:49.184Z,7.83
2018-04-23T01:45:24.663Z,7.50
2018-04-23T01:47:59.867Z,6.53
2018-04-23T01:50:35.187Z,4.90
2018-04-23T01:53:10.535Z,11.30
2018-04-23T01:55:46.590Z,5.63
2018-04-23T01:58:21.749Z,8.93
2018-04-23T02:00:56.828Z,8.83
2018-04-23T02:03:32.145Z,6.13
2018-04-23T02:06:07.399Z,4.50
2018-04-23T02:08:43.422Z,5.40
2018-04-23T02:11:18.520Z,4.03
2018-04-23T02:13:53.792Z,11.03
2018-04-23T02:16:29.159Z,7.93
2018-04-23T02:19:05.128Z,5.30
2018-04-23T02:21:40.400Z,10.10
2018-04-23T02:24:15.738Z,5.80
2018-04-23T02:26:51.053Z,6.20
2018-04-23T02:29:26.294Z,5.93
2018-04-23T02:32:01.666Z,5.20
2018-04-23T02:34:37.077Z,10.53
2018-04-23T02:37:12.342Z,4.73
2018-04-23T02:39:47.711Z,5.37
2018-04-23T02:42:23.718Z,6.17
2018-04-23T02:44:58.818Z,5.23
2018-04-23T02:47:34.093Z,5.30
2018-04-23T02:50:09.277Z,5.70
2018-04-23T02:52:45.338Z,6.13
2018-04-23T02:55:20.449Z,5.63
2018-04-23T02:57:55.805Z,8.30
2018-04-23T03:00:31.670Z,5.70
2018-04-23T03:03:07.624Z,5.83
2018-04-23T03:05:42.821Z,8.57
2018-04-23T03:08:18.096Z,8.50
2018-04-23T03:10:53.465Z,5.80
2018-04-23T03:13:28.588Z,8.93
2018-04-23T03:16:03.777Z,7.57
2018-04-23T03:18:38.935Z,5.33
2018-04-23T03:21:14.254Z,6.20
2018-04-23T03:23:49.420Z,8.87
2018-04-23T03:26:24.735Z,4.90
2018-04-23T03:29:00.011Z,6.60
2018-04-23T03:31:35.284Z,7.97
2018-04-23T03:34:11.272Z,7.07
2018-04-23T03:36:46.523Z,8.83
2018-04-23T03:39:21.777Z,6.93
2018-04-23T03:41:57.143Z,8.70
2018-04-23T03:44:32.377Z,7.43
2018-04-23T03:47:07.632Z,10.73
2018-04-23T03:49:42.856Z,8.63
2018-04-23T03:52:18.111Z,6.83
2018-04-23T03:54:53.455Z,6.53
2018-04-23T03:57:28.768Z,5.80
2018-04-23T04:00:04.108Z,8.30
2018-04-23T04:02:40.276Z,4.63
2018-04-23T04:05:15.541Z,5.27
2018-04-23T04:07:50.846Z,7.70
2018-04-23T04:10:26.133Z,4.90
2018-04-23T04:13:20.016Z,9.30
2018-04-23T04:16:13.007Z,4.20
2018-04-23T04:18:49.036Z,8.40
2018-04-23T04:21:24.376Z,6.20
2018-04-23T04:23:59.537Z,6.40
2018-04-23T04:26:34.826Z,4.53
2018-04-23T04:29:10.737Z,8.70
2018-04-23T04:31:46.727Z,4.37
2018-04-23T04:34:21.837Z,7.33
2018-04-23T04:36:57.243Z,6.80
2018-04-23T04:39:32.688Z,4.37
2018-04-23T04:42:07.995Z,5.40
2018-04-23T04:44:43.169Z,6.70
2018-04-23T04:47:18.461Z,7.50
2018-04-23T04:49:53.655Z,7.07
2018-04-23T04:52:28.935Z,6.90
2018-04-23T04:55:04.247Z,8.05
2018-04-23T04:57:39.439Z,5.77
2018-04-23T05:00:15.370Z,8.47
2018-04-23T05:02:51.729Z,8.10
2018-04-23T05:05:26.847Z,7.37
2018-04-23T05:08:02.232Z,13.03
2018-04-23T05:10:37.539Z,6.70
2018-04-23T05:13:13.594Z,4.83
2018-04-23T05:15:49.064Z,6.70
2018-04-23T05:18:24.547Z,6.63
2018-04-23T05:20:59.941Z,6.37
2018-04-23T05:23:36.047Z,6.10
2018-04-23T05:26:11.223Z,9.00
2018-04-23T05:28:46.461Z,6.10
2018-04-23T05:31:21.776Z,7.97
2018-04-23T05:33:56.962Z,11.63
2018-04-23T05:36:32.117Z,6.13
2018-04-23T05:39:07.423Z,5.83
2018-04-23T05:41:42.776Z,6.70
2018-04-23T05:44:18.731Z,7.03
2018-04-23T05:46:53.886Z,6.27
2018-04-23T05:49:29.235Z,5.77
2018-04-23T05:52:04.562Z,6.90
2018-04-23T05:54:39.899Z,6.17
2018-04-23T05:57:15.776Z,4.63
2018-04-23T05:59:50.863Z,8.53
2018-04-23T06:02:26.198Z,8.43
2018-04-23T06:05:01.557Z,4.73
2018-04-23T06:07:36.797Z,7.60
2018-04-23T06:10:12.040Z,8.60
2018-04-23T06:12:47.397Z,8.13
2018-04-23T06:15:22.805Z,7.40
2018-04-23T06:17:58.863Z,7.47
2018-04-23T06:20:34.108Z,5.93
2018-04-23T06:23:09.538Z,7.47
2018-04-23T06:25:44.677Z,7.37
2018-04-23T06:28:19.853Z,10.20
2018-04-23T06:30:55.125Z,11.03
2018-04-23T06:33:30.445Z,8.70
2018-04-23T06:36:06.963Z,6.93
2018-04-23T06:38:42.373Z,7.40
2018-04-23T06:41:18.423Z,8.40
2018-04-23T06:43:53.703Z,11.23
2018-04-23T06:46:28.948Z,8.47
2018-04-23T06:49:04.112Z,11.93
2018-04-23T06:51:39.453Z,8.47
2018-04-23T06:54:14.707Z,8.30
2018-04-23T06:56:50.042Z,8.67
2018-04-23T06:59:26.012Z,7.30
2018-04-23T07:02:01.329Z,10.90
2018-04-23T07:04:36.485Z,10.70
2018-04-23T07:07:11.855Z,10.33
2018-04-23T07:09:47.031Z,5.80
2018-04-23T07:12:22.223Z,9.73
2018-04-23T07:14:57.465Z,8.50
2018-04-23T07:17:32.768Z,11.60
2018-04-23T07:20:07.964Z,6.23
2018-04-23T07:22:43.371Z,10.60
2018-04-23T07:25:19.326Z,5.17
2018-04-23T07:27:54.484Z,8.83
2018-04-23T07:30:29.589Z,11.73
2018-04-23T07:33:05.573Z,7.73
2018-04-23T07:35:40.774Z,7.20
2018-04-23T07:38:16.034Z,6.77
2018-04-23T07:40:51.461Z,8.90
2018-04-23T07:43:26.799Z,8.43
2018-04-23T07:46:02.065Z,7.47
2018-04-23T07:48:37.435Z,10.43
2018-04-23T07:51:12.616Z,7.40
2018-04-23T07:53:47.938Z,6.40
2018-04-23T07:56:23.382Z,7.77
2018-04-23T07:58:58.657Z,6.60
2018-04-23T08:01:35.026Z,9.93
2018-04-23T08:04:10.084Z,10.10
2018-04-23T08:06:45.338Z,8.80
2018-04-23T08:09:21.305Z,11.43
2018-04-23T08:11:57.220Z,7.57
2018-04-23T08:14:33.196Z,6.23
2018-04-23T08:17:08.486Z,8.00
2018-04-23T08:19:43.821Z,10.63
2018-04-23T08:22:19.288Z,9.67
2018-04-23T08:24:54.935Z,7.03
2018-04-23T08:27:30.241Z,14.60
2018-04-23T08:30:05.435Z,15.47
2018-04-23T08:32:40.541Z,9.70
2018-04-23T08:35:15.794Z,15.90
2018-04-23T08:37:51.080Z,8.97
2018-04-23T08:40:26.253Z,11.60
2018-04-23T08:43:01.568Z,7.50
2018-04-23T08:45:36.873Z,9.43
2018-04-23T08:48:12.888Z,7.57
2018-04-23T08:50:48.148Z,8.13
2018-04-23T08:53:23.426Z,9.73
2018-04-23T08:55:58.809Z,11.90
2018-04-23T08:58:34.102Z,11.40
2018-04-23T09:01:09.442Z,12.90
2018-04-23T09:03:44.790Z,10.40
2018-04-23T09:06:20.829Z,10.33
2018-04-23T09:08:56.836Z,5.97
2018-04-23T09:11:32.233Z,9.87
2018-04-23T09:14:07.338Z,9.10
2018-04-23T09:16:44.507Z,6.57
2018-04-23T09:19:19.751Z,7.23
2018-04-23T09:21:54.827Z,10.30
2018-04-23T09:24:30.027Z,13.00
2018-04-23T09:27:05.101Z,7.53
2018-04-23T09:29:40.400Z,11.33
2018-04-23T09:32:15.659Z,14.17
2018-04-23T09:34:51.554Z,10.03
2018-04-23T09:37:26.766Z,10.50
2018-04-23T09:40:02.208Z,11.27
2018-04-23T09:42:37.552Z,12.37
2018-04-23T09:45:12.784Z,10.03
2018-04-23T09:47:48.085Z,7.93
2018-04-23T09:50:23.233Z,7.13
2018-04-23T09:52:58.491Z,11.77
2018-04-23T09:55:33.776Z,6.60
2018-04-23T09:58:09.119Z,14.67
2018-04-23T10:00:44.500Z,8.63
2018-04-23T10:03:19.676Z,7.43
2018-04-23T10:05:55.769Z,9.50
2018-04-23T10:08:30.837Z,8.90
2018-04-23T10:11:06.108Z,9.17
2018-04-23T10:13:41.531Z,11.40
2018-04-23T10:16:16.968Z,11.97
2018-04-23T10:18:52.522Z,13.97
2018-04-23T10:21:27.581Z,8.50
2018-04-23T10:24:03.049Z,7.20
2018-04-23T10:26:38.197Z,12.33
2018-04-23T10:29:13.502Z,12.30
2018-04-23T10:31:50.385Z,10.63
2018-04-23T10:34:25.640Z,7.73
2018-04-23T10:37:03.002Z,7.60
2018-04-23T10:39:38.231Z,10.03
2018-04-23T10:42:14.172Z,12.93
2018-04-23T10:44:49.454Z,7.13
2018-04-23T10:47:24.890Z,11.87
2018-04-23T10:50:00.335Z,11.00
2018-04-23T10:52:35.779Z,10.90
2018-04-23T10:55:11.184Z,7.53
2018-04-23T10:57:46.297Z,13.47
2018-04-23T11:00:21.712Z,9.87
2018-04-23T11:02:56.923Z,8.40
2018-04-23T11:05:32.043Z,10.07
2018-04-23T11:08:07.200Z,8.80
2018-04-23T11:10:42.560Z,15.20
2018-04-23T11:13:18.517Z,13.83
2018-04-23T11:15:54.505Z,12.30
2018-04-23T11:18:29.918Z,12.07
2018-04-23T11:21:05.095Z,8.50
2018-04-23T11:23:40.264Z,14.13
2018-04-23T11:26:15.538Z,9.33
2018-04-23T11:28:50.940Z,16.17
2018-04-23T11:31:26.859Z,15.47
2018-04-23T11:34:02.859Z,14.03
2018-04-23T11:36:38.025Z,13.20
2018-04-23T11:39:13.348Z,11.27
2018-04-23T11:41:48.747Z,16.10
2018-04-23T11:44:24.660Z,13.87
2018-04-23T11:47:00.000Z,12.30
2018-04-23T11:49:35.498Z,9.23
2018-04-23T11:52:10.889Z,17.47
2018-04-23T11:54:46.231Z,16.50
2018-04-23T11:57:23.910Z,10.70
2018-04-23T11:59:59.956Z,11.03
2018-04-23T12:02:36.394Z,11.50
2018-04-23T12:05:11.594Z,9.60
2018-04-23T12:07:47.027Z,9.37
2018-04-23T12:10:22.353Z,17.73
2018-04-23T12:12:58.335Z,11.83
2018-04-23T12:15:33.588Z,9.57
2018-04-23T12:18:09.549Z,9.40
2018-04-23T12:20:44.741Z,18.60
2018-04-23T12:23:20.666Z,11.87
2018-04-23T12:25:55.984Z,10.37
2018-04-23T12:28:31.208Z,17.27
2018-04-23T12:31:06.306Z,9.73
2018-04-23T12:33:41.702Z,10.03
2018-04-23T12:36:16.924Z,13.30
2018-04-23T12:38:52.381Z,7.60
2018-04-23T12:41:27.545Z,10.43
2018-04-23T12:44:03.545Z,12.13
2018-04-23T12:46:39.459Z,13.33
2018-04-23T12:49:15.388Z,13.67
2018-04-23T12:51:51.645Z,10.13
2018-04-23T12:54:27.653Z,13.10
2018-04-23T12:57:02.774Z,7.67
2018-04-23T12:59:38.099Z,11.30
2018-04-23T13:02:13.418Z,11.03
2018-04-23T13:04:48.649Z,9.27
2018-04-23T13:07:24.714Z,14.00
2018-04-23T13:09:59.779Z,9.87
2018-04-23T13:12:36.551Z,9.10
2018-04-23T13:15:11.936Z,10.00
2018-04-23T13:17:47.135Z,13.40
2018-04-23T13:20:22.267Z,15.07
2018-04-23T13:22:58.239Z,10.87
2018-04-23T13:25:34.062Z,9.67
2018-04-23T13:28:09.183Z,8.87
2018-04-23T13:30:45.156Z,12.77
2018-04-23T13:33:21.177Z,8.93
2018-04-23T13:35:57.176Z,12.10
2018-04-23T13:38:32.665Z,9.63
2018-04-23T13:41:08.630Z,8.07
2018-04-23T13:43:45.473Z,12.40
2018-04-23T13:46:20.795Z,11.13
2018-04-23T13:48:56.055Z,12.93
2018-04-23T13:51:32.256Z,9.67
2018-04-23T13:54:07.535Z,11.70
2018-04-23T13:56:42.700Z,9.73
2018-04-23T13:59:18.034Z,14.67
2018-04-23T14:01:53.394Z,15.93
2018-04-23T14:04:28.538Z,8.13
2018-04-23T14:07:03.697Z,14.30
2018-04-23T14:09:39.020Z,11.38
2018-04-23T14:12:14.949Z,11.90
2018-04-23T14:14:51.102Z,9.90
2018-04-23T14:17:26.218Z,14.13
2018-04-23T14:20:01.456Z,8.83
2018-04-23T14:22:36.801Z,10.93
2018-04-23T14:25:12.072Z,13.53
2018-04-23T14:27:47.247Z,8.93
2018-04-23T14:30:23.212Z,9.00
2018-04-23T14:32:58.385Z,10.70
2018-04-23T14:35:34.472Z,12.97
2018-04-23T14:38:10.423Z,10.30
2018-04-23T14:40:45.525Z,15.30
2018-04-23T14:43:20.803Z,14.80
2018-04-23T14:45:56.210Z,13.60
2018-04-23T14:48:31.570Z,12.10
2018-04-23T14:51:06.930Z,10.47
2018-04-23T14:53:42.271Z,8.03
2018-04-23T14:56:18.211Z,13.37
2018-04-23T14:58:54.218Z,12.20
2018-04-23T15:01:29.484Z,8.93
2018-04-23T15:04:06.920Z,12.77
2018-04-23T15:06:42.849Z,9.40
2018-04-23T15:09:18.032Z,10.30
2018-04-23T15:11:53.160Z,7.93
2018-04-23T15:14:28.436Z,10.50
2018-04-23T15:17:03.690Z,8.77
2018-04-23T15:19:39.100Z,12.50
2018-04-23T15:22:14.235Z,9.73
2018-04-23T15:24:49.551Z,9.30
2018-04-23T15:27:24.733Z,7.77
2018-04-23T15:30:00.101Z,7.23
2018-04-23T15:32:35.291Z,9.80
2018-04-23T15:35:11.279Z,6.57
2018-04-23T15:37:46.524Z,6.80
2018-04-23T15:40:21.895Z,6.57
2018-04-23T15:42:58.231Z,6.60
2018-04-23T15:45:33.704Z,10.27
2018-04-23T15:48:10.240Z,9.40
2018-04-23T15:50:45.532Z,7.80
2018-04-23T15:53:20.702Z,6.63
2018-04-23T15:55:56.064Z,6.40
2018-04-23T15:58:31.330Z,6.00
2018-04-23T16:01:06.685Z,4.03
2018-04-23T16:03:42.005Z,4.00
2018-04-23T16:06:17.987Z,7.53
2018-04-23T16:08:55.223Z,5.90
2018-04-23T16:11:31.134Z,5.83
2018-04-23T16:14:06.392Z,8.27
2018-04-23T16:16:42.329Z,3.43
2018-04-23T16:19:17.572Z,6.97
2018-04-23T16:21:53.515Z,5.17
2018-04-23T16:24:29.477Z,4.70
2018-04-23T16:27:05.321Z,5.27
2018-04-23T16:29:40.767Z,3.50
2018-04-23T16:32:16.791Z,6.83
2018-04-23T16:34:52.144Z,5.63
2018-04-23T16:37:27.523Z,4.78
2018-04-23T16:40:02.687Z,4.57
2018-04-23T16:42:38.026Z,6.43
2018-04-23T16:45:13.330Z,10.50
2018-04-23T16:47:48.427Z,4.23
2018-04-23T16:50:23.748Z,5.73
2018-04-23T16:52:59.660Z,3.77
2018-04-23T16:55:34.726Z,5.70
2018-04-23T16:58:10.489Z,5.90
2018-04-23T17:00:45.521Z,5.53
2018-04-23T17:03:22.127Z,4.10
2018-04-23T17:05:57.266Z,3.83
2018-04-23T17:08:32.497Z,3.67
2018-04-23T17:11:07.841Z,4.10
2018-04-23T17:13:43.023Z,3.70
2018-04-23T17:16:18.232Z,5.20
2018-04-23T17:18:53.619Z,5.73
2018-04-23T17:21:28.895Z,7.97
2018-04-23T17:24:04.890Z,4.33
2018-04-23T17:26:40.222Z,3.73
2018-04-23T17:29:15.546Z,6.80
2018-04-23T17:31:50.906Z,4.53
2018-04-23T17:34:26.254Z,3.30
2018-04-23T17:37:01.580Z,4.13
2018-04-23T17:39:36.878Z,6.00
2018-04-23T17:42:12.891Z,4.10
2018-04-23T17:44:48.935Z,4.00
2018-04-23T17:47:24.303Z,2.60
2018-04-23T17:49:59.637Z,3.30
2018-04-23T17:52:35.069Z,3.50
2018-04-23T17:55:10.324Z,5.90
2018-04-23T17:57:45.648Z,8.17
2018-04-23T18:00:21.016Z,1.97
2018-04-23T18:02:56.338Z,2.70
2018-04-23T18:05:31.675Z,3.70
2018-04-23T18:08:07.015Z,2.13
2018-04-23T18:10:43.038Z,3.90
2018-04-23T18:13:19.325Z,2.40
2018-04-23T18:15:55.301Z,6.20
2018-04-23T18:18:30.955Z,3.90
2018-04-23T18:21:08.228Z,9.33
2018-04-23T18:23:45.049Z,3.17
2018-04-23T18:26:21.283Z,2.87
2018-04-23T18:28:57.636Z,3.10
2018-04-23T18:31:34.578Z,3.20
2018-04-23T18:34:10.357Z,3.13
2018-04-23T18:36:46.750Z,3.87
2018-04-23T18:39:23.309Z,3.70
2018-04-23T18:41:58.588Z,3.60
2018-04-23T18:44:33.703Z,2.47
2018-04-23T18:47:08.919Z,4.23
2018-04-23T18:49:44.091Z,3.07
2018-04-23T18:52:20.272Z,2.73
2018-04-23T18:54:55.648Z,4.90
2018-04-23T18:57:32.734Z,4.07
2018-04-23T19:00:08.326Z,2.67
2018-04-23T19:02:43.752Z,7.17
2018-04-23T19:05:19.050Z,4.67
2018-04-23T19:07:54.464Z,3.00
2018-04-23T19:10:30.235Z,7.83
2018-04-23T19:13:05.544Z,4.07
2018-04-23T19:15:41.481Z,4.27
2018-04-23T19:18:16.791Z,2.90
2018-04-23T19:20:55.243Z,4.03
2018-04-23T19:23:31.415Z,4.83
2018-04-23T19:26:07.380Z,5.00
2018-04-23T19:28:42.610Z,3.27
2018-04-23T19:31:17.849Z,3.10
2018-04-23T19:33:53.100Z,3.53
2018-04-23T19:36:28.377Z,2.70
2018-04-23T19:39:04.163Z,2.70
2018-04-23T19:41:39.346Z,5.30
2018-04-23T19:44:14.527Z,2.70
2018-04-23T19:46:49.779Z,2.87
2018-04-23T19:49:25.098Z,2.17
2018-04-23T19:52:00.403Z,2.83
2018-04-23T19:54:35.756Z,2.77
2018-04-23T19:57:10.967Z,2.90
2018-04-23T19:59:46.257Z,2.90
2018-04-23T20:02:22.242Z,3.93
2018-04-23T20:04:57.470Z,7.10
2018-04-23T20:07:32.699Z,7.13
2018-04-23T20:10:08.603Z,3.40
2018-04-23T20:12:43.729Z,3.50
2018-04-23T20:15:19.051Z,5.50
2018-04-23T20:17:54.468Z,3.87
2018-04-23T20:20:30.467Z,2.40
2018-04-23T20:23:06.406Z,5.63
2018-04-23T20:25:42.617Z,15.00
2018-04-23T20:28:17.771Z,6.70
2018-04-23T20:30:54.008Z,2.90
2018-04-23T20:33:31.614Z,3.30
2018-04-23T20:36:08.512Z,5.30
2018-04-23T20:38:45.690Z,4.00
2018-04-23T20:41:21.085Z,2.90
2018-04-23T20:43:56.403Z,4.80
2018-04-23T20:46:31.703Z,4.73
2018-04-23T20:49:07.702Z,5.40
2018-04-23T20:51:43.700Z,4.17
2018-04-23T20:54:19.906Z,9.50
2018-04-23T20:56:56.903Z,4.27
2018-04-23T20:59:34.032Z,3.70
2018-04-23T21:02:13.136Z,5.47
2018-04-23T21:04:48.959Z,3.50
2018-04-23T21:07:25.785Z,6.03
2018-04-23T21:10:00.958Z,3.73
2018-04-23T21:12:36.244Z,3.40
2018-04-23T21:15:11.615Z,4.43
2018-04-23T21:17:47.865Z,3.60
2018-04-23T21:20:23.086Z,3.47
2018-04-23T21:22:59.783Z,5.87
2018-04-23T21:25:35.975Z,5.50
2018-04-23T21:28:12.861Z,4.20
2018-04-23T21:30:49.901Z,3.50
2018-04-23T21:33:25.345Z,3.97
2018-04-23T21:36:00.769Z,4.10
2018-04-23T21:38:37.101Z,4.33
2018-04-23T21:41:13.127Z,4.20
2018-04-23T21:43:48.409Z,3.23
2018-04-23T21:46:24.509Z,3.70
2018-04-23T21:48:59.849Z,3.43
2018-04-23T21:51:35.155Z,3.27
2018-04-23T21:54:10.386Z,3.70
2018-04-23T21:56:46.273Z,4.40
2018-04-23T21:59:21.834Z,3.83
2018-04-23T22:01:57.082Z,3.47
2018-04-23T22:04:34.671Z,4.00
2018-04-23T22:07:09.769Z,6.03
2018-04-23T22:09:44.936Z,13.70
2018-04-23T22:12:20.434Z,6.40
2018-04-23T22:14:56.404Z,4.47
2018-04-23T22:17:31.730Z,4.83
2018-04-23T22:20:06.986Z,5.50
2018-04-23T22:22:42.423Z,4.43
2018-04-23T22:25:17.645Z,3.37
2018-04-23T22:27:52.992Z,4.73
2018-04-23T22:30:28.163Z,4.27
2018-04-23T22:33:03.442Z,4.73
2018-04-23T22:35:38.874Z,6.27
2018-04-23T22:38:14.135Z,5.00
2018-04-23T22:40:50.023Z,4.90
2018-04-23T22:43:25.274Z,4.63
2018-04-23T22:46:00.688Z,5.17
2018-04-23T22:48:35.868Z,5.73
2018-04-23T22:51:11.266Z,8.10
2018-04-23T22:53:46.323Z,4.40
2018-04-23T22:56:21.665Z,5.27
2018-04-23T22:58:56.892Z,5.33
2018-04-23T23:01:32.127Z,4.50
2018-04-23T23:04:08.184Z,5.60
2018-04-23T23:06:43.328Z,5.70
2018-04-23T23:09:18.563Z,5.60
2018-04-23T23:11:53.940Z,4.63
2018-04-23T23:14:29.260Z,5.80
2018-04-23T23:17:04.575Z,6.10
2018-04-23T23:19:40.152Z,4.63
2018-04-23T23:22:15.576Z,4.57
2018-04-23T23:24:50.920Z,4.80
2018-04-23T23:27:26.144Z,4.20
2018-04-23T23:30:01.503Z,6.83
2018-04-23T23:32:36.698Z,5.90
2018-04-23T23:35:11.950Z,7.60
2018-04-23T23:37:47.243Z,4.77
2018-04-23T23:40:22.591Z,8.93
2018-04-23T23:42:57.908Z,4.60
2018-04-23T23:45:33.035Z,6.57
2018-04-23T23:48:08.285Z,5.00
2018-04-23T23:50:43.518Z,4.20
2018-04-23T23:53:19.586Z,5.57
2018-04-23T23:55:54.777Z,6.77
2018-04-23T23:58:30.050Z,5.47
